sensor_id;sensor_type;location;lat;lon;timestamp;temperature;humidity
18712;DHT22;9485;49.386;8.674;2023-08-07T00:01:22;17.20;92.80
18712;DHT22;9485;49.386;8.674;2023-08-07T00:06:43;17.20;92.80
18712;DHT22;9485;49.386;8.674;2023-08-07T00:12:04;17.20;92.80
18712;DHT22;9485;49.386;8.674;2023-08-07T00:17:27;17.10;92.80
18712;DHT22;9485;49.386;8.674;2023-08-07T00:22:47;17.10;92.80
18712;DHT22;9485;49.386;8.674;2023-08-07T00:28:08;17.10;92.80
18712;DHT22;9485;49.386;8.674;2023-08-07T00:33:33;17.10;92.80
18712;DHT22;9485;49.386;8.674;2023-08-07T00:38:54;17.10;92.70
18712;DHT22;9485;49.386;8.674;2023-08-07T00:44:15;17.10;92.80
18712;DHT22;9485;49.386;8.674;2023-08-07T00:49:37;17.00;92.80
18712;DHT22;9485;49.386;8.674;2023-08-07T00:54:59;17.00;92.80
18712;DHT22;9485;49.386;8.674;2023-08-07T01:00:20;17.00;92.70
18712;DHT22;9485;49.386;8.674;2023-08-07T01:05:42;17.00;92.70
18712;DHT22;9485;49.386;8.674;2023-08-07T01:11:19;17.00;92.80
18712;DHT22;9485;49.386;8.674;2023-08-07T01:16:48;17.00;92.60
18712;DHT22;9485;49.386;8.674;2023-08-07T01:22:15;17.00;92.70
18712;DHT22;9485;49.386;8.674;2023-08-07T01:27:39;16.90;92.80
18712;DHT22;9485;49.386;8.674;2023-08-07T01:33:10;16.90;92.80
18712;DHT22;9485;49.386;8.674;2023-08-07T01:38:38;16.90;92.70
18712;DHT22;9485;49.386;8.674;2023-08-07T01:44:00;16.90;92.60
18712;DHT22;9485;49.386;8.674;2023-08-07T01:49:22;16.90;92.60
18712;DHT22;9485;49.386;8.674;2023-08-07T01:54:44;16.90;92.60
18712;DHT22;9485;49.386;8.674;2023-08-07T02:00:06;16.90;92.60
18712;DHT22;9485;49.386;8.674;2023-08-07T02:05:34;16.80;92.60
18712;DHT22;9485;49.386;8.674;2023-08-07T02:10:57;16.90;92.60
18712;DHT22;9485;49.386;8.674;2023-08-07T02:16:20;16.90;92.50
18712;DHT22;9485;49.386;8.674;2023-08-07T02:21:40;16.90;92.50
18712;DHT22;9485;49.386;8.674;2023-08-07T02:27:03;16.90;92.50
18712;DHT22;9485;49.386;8.674;2023-08-07T02:32:25;16.90;92.40
18712;DHT22;9485;49.386;8.674;2023-08-07T02:37:47;16.90;92.40
18712;DHT22;9485;49.386;8.674;2023-08-07T02:43:09;16.90;92.40
18712;DHT22;9485;49.386;8.674;2023-08-07T02:48:29;16.90;92.30
18712;DHT22;9485;49.386;8.674;2023-08-07T02:53:50;17.00;92.40
18712;DHT22;9485;49.386;8.674;2023-08-07T02:59:11;16.90;92.30
18712;DHT22;9485;49.386;8.674;2023-08-07T03:04:32;17.00;92.30
18712;DHT22;9485;49.386;8.674;2023-08-07T03:09:53;17.00;92.30
18712;DHT22;9485;49.386;8.674;2023-08-07T03:15:15;17.00;92.10
18712;DHT22;9485;49.386;8.674;2023-08-07T03:20:36;17.00;92.10
18712;DHT22;9485;49.386;8.674;2023-08-07T03:26:04;17.00;92.10
18712;DHT22;9485;49.386;8.674;2023-08-07T03:31:27;17.00;91.90
18712;DHT22;9485;49.386;8.674;2023-08-07T03:36:50;17.00;92.00
18712;DHT22;9485;49.386;8.674;2023-08-07T03:42:10;17.00;92.00
18712;DHT22;9485;49.386;8.674;2023-08-07T03:47:32;17.00;91.90
18712;DHT22;9485;49.386;8.674;2023-08-07T03:52:53;17.00;92.00
18712;DHT22;9485;49.386;8.674;2023-08-07T03:58:14;17.00;91.80
18712;DHT22;9485;49.386;8.674;2023-08-07T04:03:36;16.90;91.80
18712;DHT22;9485;49.386;8.674;2023-08-07T04:08:58;16.90;91.80
18712;DHT22;9485;49.386;8.674;2023-08-07T04:14:19;16.90;91.90
18712;DHT22;9485;49.386;8.674;2023-08-07T04:19:41;16.80;91.50
18712;DHT22;9485;49.386;8.674;2023-08-07T04:25:02;16.80;91.90
18712;DHT22;9485;49.386;8.674;2023-08-07T04:30:24;16.70;91.90
18712;DHT22;9485;49.386;8.674;2023-08-07T04:35:46;16.70;92.10
18712;DHT22;9485;49.386;8.674;2023-08-07T04:41:07;16.70;92.20
18712;DHT22;9485;49.386;8.674;2023-08-07T04:46:27;16.60;92.30
18712;DHT22;9485;49.386;8.674;2023-08-07T04:51:49;16.60;92.30
18712;DHT22;9485;49.386;8.674;2023-08-07T04:57:10;16.60;92.30
18712;DHT22;9485;49.386;8.674;2023-08-07T05:02:31;16.60;92.30
18712;DHT22;9485;49.386;8.674;2023-08-07T05:07:54;16.60;92.40
18712;DHT22;9485;49.386;8.674;2023-08-07T05:13:17;16.60;92.30
18712;DHT22;9485;49.386;8.674;2023-08-07T05:18:38;16.60;92.30
18712;DHT22;9485;49.386;8.674;2023-08-07T05:24:00;16.60;92.30
18712;DHT22;9485;49.386;8.674;2023-08-07T05:29:21;16.50;92.30
18712;DHT22;9485;49.386;8.674;2023-08-07T05:34:42;16.50;92.40
18712;DHT22;9485;49.386;8.674;2023-08-07T05:40:07;16.50;92.40
18712;DHT22;9485;49.386;8.674;2023-08-07T05:45:31;16.60;92.40
18712;DHT22;9485;49.386;8.674;2023-08-07T05:50:52;16.60;92.60
18712;DHT22;9485;49.386;8.674;2023-08-07T05:56:14;16.60;92.60
18712;DHT22;9485;49.386;8.674;2023-08-07T06:01:37;16.70;92.40
18712;DHT22;9485;49.386;8.674;2023-08-07T06:07:00;16.60;92.40
18712;DHT22;9485;49.386;8.674;2023-08-07T06:12:22;16.70;92.40
18712;DHT22;9485;49.386;8.674;2023-08-07T06:17:43;16.70;92.40
18712;DHT22;9485;49.386;8.674;2023-08-07T06:23:04;16.80;92.50
18712;DHT22;9485;49.386;8.674;2023-08-07T06:28:26;16.80;92.50
18712;DHT22;9485;49.386;8.674;2023-08-07T06:33:47;16.80;92.40
18712;DHT22;9485;49.386;8.674;2023-08-07T06:39:07;16.80;92.50
18712;DHT22;9485;49.386;8.674;2023-08-07T06:44:29;16.90;92.50
18712;DHT22;9485;49.386;8.674;2023-08-07T06:49:50;16.90;92.30
18712;DHT22;9485;49.386;8.674;2023-08-07T06:55:11;17.00;92.30
18712;DHT22;9485;49.386;8.674;2023-08-07T07:00:33;17.00;92.40
18712;DHT22;9485;49.386;8.674;2023-08-07T07:05:55;17.00;92.40
18712;DHT22;9485;49.386;8.674;2023-08-07T07:11:16;17.10;92.40
18712;DHT22;9485;49.386;8.674;2023-08-07T07:16:38;17.10;92.30
18712;DHT22;9485;49.386;8.674;2023-08-07T07:21:59;17.10;92.30
18712;DHT22;9485;49.386;8.674;2023-08-07T07:27:20;17.20;92.30
18712;DHT22;9485;49.386;8.674;2023-08-07T07:32:43;17.20;92.20
18712;DHT22;9485;49.386;8.674;2023-08-07T07:38:04;17.30;92.20
18712;DHT22;9485;49.386;8.674;2023-08-07T07:43:24;17.30;92.20
18712;DHT22;9485;49.386;8.674;2023-08-07T07:48:46;17.40;92.10
18712;DHT22;9485;49.386;8.674;2023-08-07T07:54:07;17.40;91.60
18712;DHT22;9485;49.386;8.674;2023-08-07T07:59:28;17.40;92.00
18712;DHT22;9485;49.386;8.674;2023-08-07T08:04:51;17.40;91.80
18712;DHT22;9485;49.386;8.674;2023-08-07T08:10:12;17.40;91.70
18712;DHT22;9485;49.386;8.674;2023-08-07T08:15:32;17.40;91.70
18712;DHT22;9485;49.386;8.674;2023-08-07T08:20:55;17.30;91.80
18712;DHT22;9485;49.386;8.674;2023-08-07T08:26:16;17.20;92.00
18712;DHT22;9485;49.386;8.674;2023-08-07T08:31:37;17.20;92.20
18712;DHT22;9485;49.386;8.674;2023-08-07T08:36:59;17.20;92.30
18712;DHT22;9485;49.386;8.674;2023-08-07T08:42:20;17.20;92.30
18712;DHT22;9485;49.386;8.674;2023-08-07T08:47:43;17.20;92.40
18712;DHT22;9485;49.386;8.674;2023-08-07T08:53:07;17.30;92.60
18712;DHT22;9485;49.386;8.674;2023-08-07T08:58:29;17.40;92.90
18712;DHT22;9485;49.386;8.674;2023-08-07T09:03:53;17.50;93.30
18712;DHT22;9485;49.386;8.674;2023-08-07T09:09:20;17.60;93.40
18712;DHT22;9485;49.386;8.674;2023-08-07T09:14:42;17.70;93.30
18712;DHT22;9485;49.386;8.674;2023-08-07T09:20:05;17.80;93.30
18712;DHT22;9485;49.386;8.674;2023-08-07T09:25:33;17.90;93.20
18712;DHT22;9485;49.386;8.674;2023-08-07T09:30:55;18.00;93.20
18712;DHT22;9485;49.386;8.674;2023-08-07T09:36:16;18.10;93.20
18712;DHT22;9485;49.386;8.674;2023-08-07T09:41:39;18.20;93.20
18712;DHT22;9485;49.386;8.674;2023-08-07T09:46:59;18.30;93.40
18712;DHT22;9485;49.386;8.674;2023-08-07T09:52:20;18.40;93.40
18712;DHT22;9485;49.386;8.674;2023-08-07T09:57:43;18.50;93.10
18712;DHT22;9485;49.386;8.674;2023-08-07T10:03:04;18.50;92.70
18712;DHT22;9485;49.386;8.674;2023-08-07T10:08:25;18.50;92.70
18712;DHT22;9485;49.386;8.674;2023-08-07T10:13:48;18.50;92.60
18712;DHT22;9485;49.386;8.674;2023-08-07T10:19:09;18.30;92.70
18712;DHT22;9485;49.386;8.674;2023-08-07T10:24:31;18.40;92.90
18712;DHT22;9485;49.386;8.674;2023-08-07T10:29:56;18.40;93.00
18712;DHT22;9485;49.386;8.674;2023-08-07T10:35:29;18.50;92.90
18712;DHT22;9485;49.386;8.674;2023-08-07T10:41:01;18.50;92.70
18712;DHT22;9485;49.386;8.674;2023-08-07T10:46:27;18.50;92.90
18712;DHT22;9485;49.386;8.674;2023-08-07T10:52:13;18.50;93.10
18712;DHT22;9485;49.386;8.674;2023-08-07T10:57:39;18.50;93.10
18712;DHT22;9485;49.386;8.674;2023-08-07T11:03:02;18.60;93.10
18712;DHT22;9485;49.386;8.674;2023-08-07T11:08:23;18.60;93.10
18712;DHT22;9485;49.386;8.674;2023-08-07T11:13:44;18.60;93.10
18712;DHT22;9485;49.386;8.674;2023-08-07T11:19:06;18.60;93.10
18712;DHT22;9485;49.386;8.674;2023-08-07T11:24:28;18.60;93.10
18712;DHT22;9485;49.386;8.674;2023-08-07T11:29:49;18.70;93.10
18712;DHT22;9485;49.386;8.674;2023-08-07T11:35:11;18.70;93.20
18712;DHT22;9485;49.386;8.674;2023-08-07T11:40:32;18.70;93.20
18712;DHT22;9485;49.386;8.674;2023-08-07T11:45:53;18.70;93.20
18712;DHT22;9485;49.386;8.674;2023-08-07T11:51:16;18.70;93.20
18712;DHT22;9485;49.386;8.674;2023-08-07T11:56:37;18.80;93.20
18712;DHT22;9485;49.386;8.674;2023-08-07T12:02:09;18.90;93.80
18712;DHT22;9485;49.386;8.674;2023-08-07T12:07:33;19.00;93.70
18712;DHT22;9485;49.386;8.674;2023-08-07T12:12:58;19.10;93.70
18712;DHT22;9485;49.386;8.674;2023-08-07T12:18:22;19.20;93.40
18712;DHT22;9485;49.386;8.674;2023-08-07T12:23:45;19.30;93.20
18712;DHT22;9485;49.386;8.674;2023-08-07T12:29:07;19.40;93.20
18712;DHT22;9485;49.386;8.674;2023-08-07T12:34:27;19.40;93.60
18712;DHT22;9485;49.386;8.674;2023-08-07T12:39:50;19.60;93.20
18712;DHT22;9485;49.386;8.674;2023-08-07T12:45:13;19.60;92.60
18712;DHT22;9485;49.386;8.674;2023-08-07T12:50:35;19.60;92.60
18712;DHT22;9485;49.386;8.674;2023-08-07T12:55:57;19.60;93.10
18712;DHT22;9485;49.386;8.674;2023-08-07T13:01:19;19.60;93.30
18712;DHT22;9485;49.386;8.674;2023-08-07T13:06:39;19.70;93.30
18712;DHT22;9485;49.386;8.674;2023-08-07T13:12:02;19.80;93.20
18712;DHT22;9485;49.386;8.674;2023-08-07T13:17:23;19.80;93.00
18712;DHT22;9485;49.386;8.674;2023-08-07T13:22:44;19.90;93.00
18712;DHT22;9485;49.386;8.674;2023-08-07T13:28:06;19.90;93.20
18712;DHT22;9485;49.386;8.674;2023-08-07T13:33:30;20.00;93.40
18712;DHT22;9485;49.386;8.674;2023-08-07T13:38:50;20.10;93.40
18712;DHT22;9485;49.386;8.674;2023-08-07T13:44:13;20.30;93.40
18712;DHT22;9485;49.386;8.674;2023-08-07T13:49:34;20.40;93.40
18712;DHT22;9485;49.386;8.674;2023-08-07T13:54:55;20.50;93.70
18712;DHT22;9485;49.386;8.674;2023-08-07T14:00:17;20.70;93.80
18712;DHT22;9485;49.386;8.674;2023-08-07T14:05:38;20.80;93.50
18712;DHT22;9485;49.386;8.674;2023-08-07T14:10:59;21.00;93.50
18712;DHT22;9485;49.386;8.674;2023-08-07T14:16:22;21.20;93.60
18712;DHT22;9485;49.386;8.674;2023-08-07T14:21:43;21.50;94.50
18712;DHT22;9485;49.386;8.674;2023-08-07T14:27:05;22.10;95.10
18712;DHT22;9485;49.386;8.674;2023-08-07T14:32:28;22.70;94.70
18712;DHT22;9485;49.386;8.674;2023-08-07T14:37:49;23.30;93.60
18712;DHT22;9485;49.386;8.674;2023-08-07T14:43:09;23.70;92.40
18712;DHT22;9485;49.386;8.674;2023-08-07T14:48:31;23.80;91.40
18712;DHT22;9485;49.386;8.674;2023-08-07T14:53:52;23.70;91.50
18712;DHT22;9485;49.386;8.674;2023-08-07T14:59:13;23.70;90.80
18712;DHT22;9485;49.386;8.674;2023-08-07T15:04:35;23.70;90.50
18712;DHT22;9485;49.386;8.674;2023-08-07T15:09:56;23.70;90.00
18712;DHT22;9485;49.386;8.674;2023-08-07T15:15:17;23.60;89.40
18712;DHT22;9485;49.386;8.674;2023-08-07T15:20:39;23.40;88.70
18712;DHT22;9485;49.386;8.674;2023-08-07T15:26:00;23.30;89.70
18712;DHT22;9485;49.386;8.674;2023-08-07T15:31:22;23.20;90.00
18712;DHT22;9485;49.386;8.674;2023-08-07T15:36:44;23.30;90.10
18712;DHT22;9485;49.386;8.674;2023-08-07T15:42:05;23.20;89.10
18712;DHT22;9485;49.386;8.674;2023-08-07T15:47:27;23.20;88.50
18712;DHT22;9485;49.386;8.674;2023-08-07T15:52:48;23.10;88.10
18712;DHT22;9485;49.386;8.674;2023-08-07T15:58:09;22.90;87.30
18712;DHT22;9485;49.386;8.674;2023-08-07T16:03:30;22.80;88.60
18712;DHT22;9485;49.386;8.674;2023-08-07T16:08:56;22.80;88.90
18712;DHT22;9485;49.386;8.674;2023-08-07T16:14:17;22.90;88.80
18712;DHT22;9485;49.386;8.674;2023-08-07T16:19:38;22.90;88.50
18712;DHT22;9485;49.386;8.674;2023-08-07T16:25:00;22.90;88.20
18712;DHT22;9485;49.386;8.674;2023-08-07T16:30:22;22.80;87.20
18712;DHT22;9485;49.386;8.674;2023-08-07T16:35:42;22.70;88.20
18712;DHT22;9485;49.386;8.674;2023-08-07T16:41:05;22.70;88.80
18712;DHT22;9485;49.386;8.674;2023-08-07T16:46:26;22.80;88.50
18712;DHT22;9485;49.386;8.674;2023-08-07T16:51:47;22.80;89.00
18712;DHT22;9485;49.386;8.674;2023-08-07T16:57:11;22.80;88.70
18712;DHT22;9485;49.386;8.674;2023-08-07T17:02:32;22.80;87.90
18712;DHT22;9485;49.386;8.674;2023-08-07T17:07:53;22.70;88.30
18712;DHT22;9485;49.386;8.674;2023-08-07T17:13:15;22.70;88.40
18712;DHT22;9485;49.386;8.674;2023-08-07T17:18:36;22.60;87.80
18712;DHT22;9485;49.386;8.674;2023-08-07T17:23:57;22.50;88.30
18712;DHT22;9485;49.386;8.674;2023-08-07T17:29:19;22.50;88.80
18712;DHT22;9485;49.386;8.674;2023-08-07T17:34:40;22.40;88.20
18712;DHT22;9485;49.386;8.674;2023-08-07T17:40:02;22.40;88.60
18712;DHT22;9485;49.386;8.674;2023-08-07T17:45:26;22.30;88.60
18712;DHT22;9485;49.386;8.674;2023-08-07T17:50:50;22.20;88.40
18712;DHT22;9485;49.386;8.674;2023-08-07T17:56:13;22.10;88.60
18712;DHT22;9485;49.386;8.674;2023-08-07T18:01:35;22.00;89.20
18712;DHT22;9485;49.386;8.674;2023-08-07T18:06:56;21.90;89.20
18712;DHT22;9485;49.386;8.674;2023-08-07T18:12:17;21.80;90.00
18712;DHT22;9485;49.386;8.674;2023-08-07T18:17:39;21.80;90.10
18712;DHT22;9485;49.386;8.674;2023-08-07T18:22:59;21.70;89.60
18712;DHT22;9485;49.386;8.674;2023-08-07T18:28:20;21.60;89.90
18712;DHT22;9485;49.386;8.674;2023-08-07T18:33:42;21.50;89.60
18712;DHT22;9485;49.386;8.674;2023-08-07T18:39:03;21.50;89.40
18712;DHT22;9485;49.386;8.674;2023-08-07T18:44:24;21.50;89.90
18712;DHT22;9485;49.386;8.674;2023-08-07T18:49:46;21.40;89.90
18712;DHT22;9485;49.386;8.674;2023-08-07T18:55:08;21.30;89.70
18712;DHT22;9485;49.386;8.674;2023-08-07T19:00:29;21.20;89.90
18712;DHT22;9485;49.386;8.674;2023-08-07T19:05:51;21.10;90.00
18712;DHT22;9485;49.386;8.674;2023-08-07T19:11:12;21.00;89.90
18712;DHT22;9485;49.386;8.674;2023-08-07T19:16:32;21.00;90.10
18712;DHT22;9485;49.386;8.674;2023-08-07T19:21:55;21.00;90.20
18712;DHT22;9485;49.386;8.674;2023-08-07T19:27:15;20.90;90.10
18712;DHT22;9485;49.386;8.674;2023-08-07T19:32:36;20.90;90.20
18712;DHT22;9485;49.386;8.674;2023-08-07T19:37:58;20.80;90.20
18712;DHT22;9485;49.386;8.674;2023-08-07T19:43:19;20.80;90.10
18712;DHT22;9485;49.386;8.674;2023-08-07T19:48:41;20.70;90.30
18712;DHT22;9485;49.386;8.674;2023-08-07T19:54:03;20.70;90.40
18712;DHT22;9485;49.386;8.674;2023-08-07T19:59:24;20.60;90.30
18712;DHT22;9485;49.386;8.674;2023-08-07T20:04:46;20.60;90.40
18712;DHT22;9485;49.386;8.674;2023-08-07T20:10:09;20.60;90.40
18712;DHT22;9485;49.386;8.674;2023-08-07T20:15:30;20.50;90.50
18712;DHT22;9485;49.386;8.674;2023-08-07T20:20:51;20.50;90.50
18712;DHT22;9485;49.386;8.674;2023-08-07T20:26:14;20.40;90.50
18712;DHT22;9485;49.386;8.674;2023-08-07T20:31:35;20.30;90.40
18712;DHT22;9485;49.386;8.674;2023-08-07T20:36:55;20.30;90.50
18712;DHT22;9485;49.386;8.674;2023-08-07T20:42:17;20.20;90.40
18712;DHT22;9485;49.386;8.674;2023-08-07T20:47:38;20.10;90.30
18712;DHT22;9485;49.386;8.674;2023-08-07T20:52:59;20.00;90.40
18712;DHT22;9485;49.386;8.674;2023-08-07T20:58:21;20.00;90.50
18712;DHT22;9485;49.386;8.674;2023-08-07T21:03:41;20.00;90.50
18712;DHT22;9485;49.386;8.674;2023-08-07T21:09:02;19.90;90.60
18712;DHT22;9485;49.386;8.674;2023-08-07T21:14:24;19.80;90.50
18712;DHT22;9485;49.386;8.674;2023-08-07T21:19:46;19.80;90.40
18712;DHT22;9485;49.386;8.674;2023-08-07T21:25:08;19.70;90.40
18712;DHT22;9485;49.386;8.674;2023-08-07T21:30:30;19.60;90.30
18712;DHT22;9485;49.386;8.674;2023-08-07T21:35:51;19.50;90.20
18712;DHT22;9485;49.386;8.674;2023-08-07T21:41:12;19.40;90.30
18712;DHT22;9485;49.386;8.674;2023-08-07T21:46:34;19.30;90.40
18712;DHT22;9485;49.386;8.674;2023-08-07T21:51:54;19.20;90.40
18712;DHT22;9485;49.386;8.674;2023-08-07T21:57:15;19.20;90.70
18712;DHT22;9485;49.386;8.674;2023-08-07T22:02:37;19.10;90.70
18712;DHT22;9485;49.386;8.674;2023-08-07T22:07:58;19.10;90.60
18712;DHT22;9485;49.386;8.674;2023-08-07T22:13:19;19.10;90.60
18712;DHT22;9485;49.386;8.674;2023-08-07T22:18:41;19.10;90.50
18712;DHT22;9485;49.386;8.674;2023-08-07T22:24:02;19.00;90.40
18712;DHT22;9485;49.386;8.674;2023-08-07T22:29:23;19.00;90.50
18712;DHT22;9485;49.386;8.674;2023-08-07T22:34:45;19.00;90.60
18712;DHT22;9485;49.386;8.674;2023-08-07T22:40:07;18.90;90.50
18712;DHT22;9485;49.386;8.674;2023-08-07T22:45:28;18.90;90.40
18712;DHT22;9485;49.386;8.674;2023-08-07T22:50:50;18.90;90.50
18712;DHT22;9485;49.386;8.674;2023-08-07T22:56:11;18.90;90.40
18712;DHT22;9485;49.386;8.674;2023-08-07T23:01:32;18.80;90.70
18712;DHT22;9485;49.386;8.674;2023-08-07T23:06:55;18.70;90.70
18712;DHT22;9485;49.386;8.674;2023-08-07T23:12:16;18.90;90.70
18712;DHT22;9485;49.386;8.674;2023-08-07T23:17:36;18.90;90.70
18712;DHT22;9485;49.386;8.674;2023-08-07T23:22:58;18.90;90.70
18712;DHT22;9485;49.386;8.674;2023-08-07T23:28:19;18.90;90.50
18712;DHT22;9485;49.386;8.674;2023-08-07T23:33:41;18.80;90.50
18712;DHT22;9485;49.386;8.674;2023-08-07T23:39:03;18.80;90.40
18712;DHT22;9485;49.386;8.674;2023-08-07T23:44:24;18.70;90.40
18712;DHT22;9485;49.386;8.674;2023-08-07T23:49:45;18.70;90.40
18712;DHT22;9485;49.386;8.674;2023-08-07T23:55:08;18.70;90.60
